createdAt,value
2019-04-07T00:01:18.464Z,100246.86
2019-04-07T00:03:48.334Z,100233.79
2019-04-07T00:06:17.815Z,100244.39
2019-04-07T00:08:47.528Z,100244.25
2019-04-07T00:11:17.664Z,100244.25
2019-04-07T00:13:47.167Z,100235.09
2019-04-07T00:16:16.939Z,100235.02
2019-04-07T00:18:47.044Z,100240.73
2019-04-07T00:21:16.867Z,100238.53
2019-04-07T00:23:46.322Z,100243.45
2019-04-07T00:26:19.136Z,100243.45
2019-04-07T00:28:49.804Z,100236.45
2019-04-07T00:31:19.427Z,100232.42
2019-04-07T00:33:48.893Z,100232.42
2019-04-07T00:36:18.961Z,100234.05
2019-04-07T00:38:48.924Z,100226.05
2019-04-07T00:41:18.479Z,100231.95
2019-04-07T00:43:48.061Z,100228.01
2019-04-07T00:46:17.944Z,100233.65
2019-04-07T00:48:47.499Z,100238.94
2019-04-07T00:51:16.971Z,100232.66
2019-04-07T00:53:46.468Z,100238.33
2019-04-07T00:56:15.922Z,100232.03
2019-04-07T00:58:45.703Z,100236.80
2019-04-07T01:01:16.842Z,100235.24
2019-04-07T01:03:46.296Z,100238.99
2019-04-07T01:06:15.737Z,100233.77
2019-04-07T01:08:45.694Z,100244.49
2019-04-07T01:11:15.729Z,100245.45
2019-04-07T01:13:45.274Z,100246.14
2019-04-07T01:16:14.686Z,100251.52
2019-04-07T01:18:44.234Z,100250.30
2019-04-07T01:21:13.879Z,100247.80
2019-04-07T01:23:43.639Z,100248.99
2019-04-07T01:26:13.807Z,100250.84
2019-04-07T01:28:46.296Z,100251.47
2019-04-07T01:31:15.787Z,100254.55
2019-04-07T01:33:45.318Z,100252.70
2019-04-07T01:36:17.453Z,100255.44
2019-04-07T01:38:47.455Z,100256.00
2019-04-07T01:41:19.518Z,100255.72
2019-04-07T01:43:57.527Z,100248.28
2019-04-07T01:46:28.600Z,100249.34
2019-04-07T01:49:06.663Z,100247.48
2019-04-07T01:51:47.868Z,100246.79
2019-04-07T01:54:33.657Z,100244.83
2019-04-07T01:57:20.198Z,100243.94
2019-04-07T01:59:51.952Z,100249.91
2019-04-07T02:02:35.575Z,100249.00
2019-04-07T02:05:25.352Z,100240.67
2019-04-07T02:08:05.558Z,100248.97
2019-04-07T02:10:42.922Z,100251.09
2019-04-07T02:13:19.860Z,100249.17
2019-04-07T02:15:57.725Z,100244.45
2019-04-07T02:18:28.926Z,100241.28
2019-04-07T02:21:00.096Z,100249.92
2019-04-07T02:23:33.982Z,100249.05
2019-04-07T02:26:06.043Z,100248.44
2019-04-07T02:28:37.233Z,100251.85
2019-04-07T02:31:25.863Z,100245.75
2019-04-07T02:34:05.597Z,100250.70
2019-04-07T02:36:37.574Z,100246.22
2019-04-07T02:39:09.214Z,100255.93
2019-04-07T02:41:40.437Z,100258.05
2019-04-07T02:44:15.432Z,100255.41
2019-04-07T02:46:49.635Z,100254.72
2019-04-07T02:49:33.818Z,100261.61
2019-04-07T02:52:11.127Z,100257.59
2019-04-07T02:54:59.239Z,100259.59
2019-04-07T02:57:36.556Z,100268.98
2019-04-07T03:00:12.001Z,100275.68
2019-04-07T03:02:55.835Z,100280.19
2019-04-07T03:05:27.076Z,100273.44
2019-04-07T03:07:58.299Z,100279.71
2019-04-07T03:10:36.456Z,100280.30
2019-04-07T03:13:14.514Z,100271.77
2019-04-07T03:15:48.759Z,100279.64
2019-04-07T03:18:20.216Z,100277.90
2019-04-07T03:20:55.794Z,100272.75
2019-04-07T03:23:32.959Z,100275.39
2019-04-07T03:26:11.044Z,100274.53
2019-04-07T03:28:47.945Z,100275.59
2019-04-07T03:31:32.159Z,100271.41
2019-04-07T03:34:06.119Z,100277.53
2019-04-07T03:37:16.162Z,100283.46
2019-04-07T03:39:24.481Z,100277.44
2019-04-07T03:41:55.743Z,100279.16
2019-04-07T03:44:29.648Z,100278.66
2019-04-07T03:47:01.476Z,100283.82
2019-04-07T03:49:41.965Z,100286.68
2019-04-07T03:52:25.145Z,100281.40
2019-04-07T03:55:02.284Z,100280.86
2019-04-07T03:57:46.348Z,100276.23
2019-04-07T04:01:11.563Z,100276.66
2019-04-07T04:03:59.006Z,100284.80
2019-04-07T04:06:47.246Z,100283.50
2019-04-07T04:09:37.938Z,100283.89
2019-04-07T04:12:22.813Z,100279.61
2019-04-07T04:15:10.571Z,100288.19
2019-04-07T04:17:40.093Z,100288.02
2019-04-07T04:20:10.589Z,100288.84
2019-04-07T04:22:40.254Z,100288.72
2019-04-07T04:25:10.778Z,100296.41
2019-04-07T04:27:41.965Z,100293.31
2019-04-07T04:30:12.267Z,100294.55
2019-04-07T04:32:42.102Z,100290.66
2019-04-07T04:35:12.967Z,100291.18
2019-04-07T04:37:48.117Z,100298.63
2019-04-07T04:40:14.175Z,100295.59
2019-04-07T04:42:44.340Z,100303.47
2019-04-07T04:45:14.027Z,100300.41
2019-04-07T04:47:43.469Z,100301.66
2019-04-07T04:50:13.047Z,100299.88
2019-04-07T04:52:42.822Z,100305.08
2019-04-07T04:55:13.273Z,100308.16
2019-04-07T04:57:42.775Z,100307.28
2019-04-07T05:00:13.512Z,100308.63
2019-04-07T05:02:44.181Z,100305.98
2019-04-07T05:05:13.923Z,100308.63
2019-04-07T05:07:54.019Z,100313.77
2019-04-07T05:10:14.747Z,100320.23
2019-04-07T05:12:44.603Z,100321.45
2019-04-07T05:15:14.740Z,100323.12
2019-04-07T05:17:44.586Z,100325.25
2019-04-07T05:20:14.679Z,100332.66
2019-04-07T05:22:44.493Z,100331.02
2019-04-07T05:25:14.054Z,100325.03
2019-04-07T05:27:43.443Z,100334.63
2019-04-07T05:30:13.040Z,100338.02
2019-04-07T05:32:43.125Z,100342.42
2019-04-07T05:35:13.207Z,100340.66
2019-04-07T05:37:43.326Z,100346.28
2019-04-07T05:40:14.023Z,100347.94
2019-04-07T05:42:43.490Z,100348.20
2019-04-07T05:45:13.091Z,100347.25
2019-04-07T05:47:47.320Z,100355.83
2019-04-07T05:50:14.423Z,100346.53
2019-04-07T05:52:44.509Z,100360.60
2019-04-07T05:55:14.310Z,100359.95
2019-04-07T05:57:44.202Z,100364.02
2019-04-07T06:00:16.540Z,100364.28
2019-04-07T06:02:45.786Z,100361.89
2019-04-07T06:05:16.188Z,100374.19
2019-04-07T06:07:47.011Z,100375.73
2019-04-07T06:10:16.745Z,100375.49
2019-04-07T06:12:47.366Z,100381.09
2019-04-07T06:15:21.561Z,100379.64
2019-04-07T06:17:49.083Z,100377.55
2019-04-07T06:20:18.960Z,100382.41
2019-04-07T06:22:52.837Z,100378.73
2019-04-07T06:25:19.576Z,100383.74
2019-04-07T06:27:49.073Z,100382.81
2019-04-07T06:30:19.525Z,100386.70
2019-04-07T06:32:49.020Z,100381.87
2019-04-07T06:35:19.267Z,100381.54
2019-04-07T06:37:49.916Z,100378.96
2019-04-07T06:40:20.644Z,100373.13
2019-04-07T06:42:50.605Z,100377.63
2019-04-07T06:45:22.761Z,100376.05
2019-04-07T06:47:55.237Z,100377.47
2019-04-07T06:50:49.392Z,100382.45
2019-04-07T06:53:18.641Z,100380.04
2019-04-07T06:56:04.957Z,100385.56
2019-04-07T06:58:51.489Z,100386.45
2019-04-07T07:01:32.294Z,100385.40
2019-04-07T07:04:22.295Z,100393.90
2019-04-07T07:06:53.420Z,100390.61
2019-04-07T07:09:26.428Z,100393.66
2019-04-07T07:12:19.186Z,100392.70
2019-04-07T07:14:58.369Z,100388.09
2019-04-07T07:17:33.160Z,100391.22
2019-04-07T07:20:05.683Z,100393.30
2019-04-07T07:22:40.200Z,100393.63
2019-04-07T07:25:10.337Z,100392.75
2019-04-07T07:27:41.712Z,100385.36
2019-04-07T07:30:11.045Z,100385.36
2019-04-07T07:32:40.961Z,100390.82
2019-04-07T07:35:15.006Z,100380.29
2019-04-07T07:37:41.794Z,100392.20
2019-04-07T07:40:12.383Z,100385.80
2019-04-07T07:42:43.103Z,100395.63
2019-04-07T07:45:14.006Z,100399.16
2019-04-07T07:47:43.817Z,100396.81
2019-04-07T07:50:13.611Z,100397.08
2019-04-07T07:52:44.158Z,100397.38
2019-04-07T07:55:14.253Z,100399.94
2019-04-07T07:57:43.845Z,100397.41
2019-04-07T08:00:13.711Z,100407.37
2019-04-07T08:02:43.244Z,100402.73
2019-04-07T08:05:13.445Z,100394.92
2019-04-07T08:07:46.804Z,100399.97
2019-04-07T08:10:15.735Z,100397.52
2019-04-07T08:12:47.216Z,100398.58
2019-04-07T08:15:22.852Z,100394.47
2019-04-07T08:17:50.931Z,100401.67
2019-04-07T08:20:22.044Z,100398.10
2019-04-07T08:22:51.607Z,100401.23
2019-04-07T08:25:25.052Z,100403.25
2019-04-07T08:27:55.412Z,100409.70
2019-04-07T08:30:25.058Z,100403.83
2019-04-07T08:32:57.654Z,100406.53
2019-04-07T08:35:25.894Z,100405.45
2019-04-07T08:37:55.633Z,100403.73
2019-04-07T08:40:25.309Z,100404.19
2019-04-07T08:42:55.068Z,100408.94
2019-04-07T08:45:26.710Z,100406.48
2019-04-07T08:47:55.730Z,100406.72
2019-04-07T08:50:27.710Z,100409.91
2019-04-07T08:52:56.456Z,100406.02
2019-04-07T08:55:25.983Z,100400.98
2019-04-07T08:57:56.194Z,100402.46
2019-04-07T09:00:28.306Z,100399.87
2019-04-07T09:03:03.903Z,100405.23
2019-04-07T09:05:31.098Z,100397.42
2019-04-07T09:08:03.589Z,100398.19
2019-04-07T09:10:51.414Z,100390.52
2019-04-07T09:13:20.913Z,100395.63
2019-04-07T09:16:04.655Z,100391.49
2019-04-07T09:18:57.787Z,100387.45
2019-04-07T09:21:38.660Z,100390.86
2019-04-07T09:24:18.181Z,100399.31
2019-04-07T09:26:58.834Z,100393.78
2019-04-07T09:29:31.237Z,100399.05
2019-04-07T09:32:11.966Z,100397.75
2019-04-07T09:34:43.140Z,100396.61
2019-04-07T09:37:22.100Z,100394.36
2019-04-07T09:40:09.372Z,100395.88
2019-04-07T09:42:46.656Z,100398.81
2019-04-07T09:45:29.929Z,100396.83
2019-04-07T09:48:02.061Z,100392.48
2019-04-07T09:50:33.505Z,100396.03
2019-04-07T09:53:07.313Z,100389.91
2019-04-07T09:55:38.415Z,100397.18
2019-04-07T09:58:25.180Z,100393.60
2019-04-07T10:01:07.803Z,100394.72
2019-04-07T10:03:55.592Z,100394.82
2019-04-07T10:06:26.841Z,100390.95
2019-04-07T10:09:01.085Z,100386.03
2019-04-07T10:11:39.671Z,100389.05
2019-04-07T10:14:10.848Z,100388.41
2019-04-07T10:16:50.789Z,100381.43
2019-04-07T10:19:39.730Z,100385.43
2019-04-07T10:22:13.998Z,100380.98
2019-04-07T10:24:48.309Z,100383.95
2019-04-07T10:27:28.617Z,100382.74
2019-04-07T10:30:03.557Z,100385.75
2019-04-07T10:32:34.775Z,100381.58
2019-04-07T10:35:11.275Z,100385.39
2019-04-07T10:37:50.995Z,100388.22
2019-04-07T10:40:34.748Z,100386.36
2019-04-07T10:43:25.028Z,100395.35
2019-04-07T10:46:02.411Z,100380.03
2019-04-07T10:48:48.587Z,100382.48
2019-04-07T10:51:28.520Z,100386.18
2019-04-07T10:54:00.399Z,100393.34
2019-04-07T10:56:48.019Z,100377.70
2019-04-07T10:59:20.966Z,100386.16
2019-04-07T11:02:08.334Z,100390.59
2019-04-07T11:04:51.815Z,100380.82
2019-04-07T11:07:26.647Z,100380.03
2019-04-07T11:10:07.110Z,100377.83
2019-04-07T11:12:41.276Z,100379.41
2019-04-07T11:15:27.571Z,100380.63
2019-04-07T11:18:04.727Z,100375.22
2019-04-07T11:20:39.016Z,100377.06
2019-04-07T11:23:19.142Z,100376.08
2019-04-07T11:26:03.650Z,100377.87
2019-04-07T11:28:37.988Z,100378.05
2019-04-07T11:31:09.376Z,100380.23
2019-04-07T11:33:50.322Z,100371.84
2019-04-07T11:36:31.036Z,100370.50
2019-04-07T11:39:13.217Z,100371.20
2019-04-07T11:41:51.486Z,100369.98
2019-04-07T11:44:32.271Z,100376.54
2019-04-07T11:47:08.848Z,100376.48
2019-04-07T11:49:44.716Z,100378.28
2019-04-07T11:52:30.986Z,100370.45
2019-04-07T11:55:18.434Z,100378.83
2019-04-07T11:58:03.013Z,100373.54
2019-04-07T12:00:23.748Z,100378.03
2019-04-07T12:03:03.949Z,100381.20
2019-04-07T12:05:44.161Z,100377.92
2019-04-07T12:08:36.052Z,100371.31
2019-04-07T12:11:06.248Z,100380.18
2019-04-07T12:13:37.436Z,100372.70
2019-04-07T12:16:18.462Z,100373.16
2019-04-07T12:19:09.447Z,100371.07
2019-04-07T12:21:49.375Z,100363.20
2019-04-07T12:24:24.663Z,100364.83
2019-04-07T12:27:10.857Z,100368.48
2019-04-07T12:29:41.697Z,100373.03
2019-04-07T12:32:15.899Z,100368.78
2019-04-07T12:34:56.643Z,100368.77
2019-04-07T12:37:44.595Z,100369.24
2019-04-07T12:40:22.988Z,100370.67
2019-04-07T12:43:13.204Z,100362.89
2019-04-07T12:45:43.700Z,100361.61
2019-04-07T12:48:19.616Z,100352.92
2019-04-07T12:50:57.344Z,100364.21
2019-04-07T12:53:36.124Z,100356.11
2019-04-07T12:56:08.054Z,100353.36
2019-04-07T12:58:44.047Z,100351.92
2019-04-07T13:01:17.550Z,100352.31
2019-04-07T13:03:47.284Z,100346.55
2019-04-07T13:06:35.196Z,100346.36
2019-04-07T13:09:28.967Z,100347.75
2019-04-07T13:12:06.556Z,100340.71
2019-04-07T13:14:42.797Z,100337.55
2019-04-07T13:17:34.159Z,100337.01
2019-04-07T13:20:02.424Z,100342.42
2019-04-07T13:22:39.390Z,100340.56
2019-04-07T13:25:29.264Z,100333.73
2019-04-07T13:28:00.321Z,100336.39
2019-04-07T13:30:44.462Z,100335.28
2019-04-07T13:33:30.602Z,100332.75
2019-04-07T13:36:18.505Z,100335.39
2019-04-07T13:39:06.619Z,100328.16
2019-04-07T13:41:44.230Z,100333.25
2019-04-07T13:44:10.788Z,100330.80
2019-04-07T13:47:00.613Z,100329.80
2019-04-07T13:49:33.195Z,100331.96
2019-04-07T13:52:19.329Z,100332.95
2019-04-07T13:54:54.779Z,100327.74
2019-04-07T13:57:34.963Z,100331.21
2019-04-07T14:00:16.005Z,100326.06
2019-04-07T14:02:53.346Z,100330.74
2019-04-07T14:05:30.415Z,100332.42
2019-04-07T14:08:17.918Z,100327.95
2019-04-07T14:10:49.278Z,100323.77
2019-04-07T14:13:23.254Z,100326.13
2019-04-07T14:15:56.478Z,100326.67
2019-04-07T14:18:27.805Z,100321.30
2019-04-07T14:21:15.752Z,100315.27
2019-04-07T14:23:55.540Z,100309.81
2019-04-07T14:26:34.621Z,100317.41
2019-04-07T14:29:19.510Z,100315.79
2019-04-07T14:32:02.080Z,100315.08
2019-04-07T14:34:49.882Z,100318.47
2019-04-07T14:37:21.779Z,100309.90
2019-04-07T14:39:56.651Z,100313.78
2019-04-07T14:42:37.225Z,100317.49
2019-04-07T14:45:09.551Z,100316.31
2019-04-07T14:47:53.523Z,100315.94
2019-04-07T14:50:25.308Z,100316.67
2019-04-07T14:53:13.167Z,100317.14
2019-04-07T14:55:53.143Z,100310.28
2019-04-07T14:58:28.110Z,100312.96
2019-04-07T15:01:08.452Z,100318.67
2019-04-07T15:03:41.010Z,100317.94
2019-04-07T15:06:10.894Z,100311.11
2019-04-07T15:08:44.251Z,100308.64
2019-04-07T15:11:25.007Z,100308.45
2019-04-07T15:13:57.899Z,100305.56
2019-04-07T15:16:27.383Z,100314.14
2019-04-07T15:18:58.701Z,100309.78
2019-04-07T15:21:28.261Z,100309.94
2019-04-07T15:24:04.667Z,100312.98
2019-04-07T15:26:34.692Z,100312.00
2019-04-07T15:29:09.261Z,100308.22
2019-04-07T15:31:37.450Z,100308.09
2019-04-07T15:34:09.514Z,100311.70
2019-04-07T15:36:38.611Z,100303.69
2019-04-07T15:39:09.801Z,100306.16
2019-04-07T15:41:42.503Z,100307.41
2019-04-07T15:44:14.000Z,100310.33
2019-04-07T15:46:42.657Z,100317.88
2019-04-07T15:49:13.408Z,100316.08
2019-04-07T15:51:43.252Z,100311.52
2019-04-07T15:54:13.521Z,100311.58
2019-04-07T15:56:48.078Z,100315.98
2019-04-07T15:59:18.753Z,100310.38
2019-04-07T16:01:50.012Z,100316.70
2019-04-07T16:04:25.186Z,100318.80
2019-04-07T16:06:51.578Z,100321.61
2019-04-07T16:09:35.923Z,100316.32
2019-04-07T16:11:57.453Z,100327.03
2019-04-07T16:14:26.338Z,100322.08
2019-04-07T16:16:59.611Z,100318.06
2019-04-07T16:19:37.248Z,100320.58
2019-04-07T16:22:00.022Z,100325.08
2019-04-07T16:24:32.643Z,100321.22
2019-04-07T16:27:05.181Z,100332.77
2019-04-07T16:29:35.202Z,100332.34
2019-04-07T16:32:04.875Z,100331.10
2019-04-07T16:34:34.884Z,100330.55
2019-04-07T16:37:06.808Z,100328.25
2019-04-07T16:39:36.403Z,100330.75
2019-04-07T16:42:06.478Z,100333.72
2019-04-07T16:44:37.596Z,100334.61
2019-04-07T16:47:17.680Z,100332.00
2019-04-07T16:49:41.355Z,100326.17
2019-04-07T16:52:10.159Z,100333.27
2019-04-07T16:54:43.489Z,100333.61
2019-04-07T16:57:11.201Z,100337.20
2019-04-07T16:59:43.011Z,100341.67
2019-04-07T17:02:14.507Z,100339.84
2019-04-07T17:04:47.377Z,100339.88
2019-04-07T17:07:21.113Z,100343.47
2019-04-07T17:09:49.590Z,100341.80
2019-04-07T17:12:19.238Z,100340.38
2019-04-07T17:14:49.416Z,100349.70
2019-04-07T17:17:21.711Z,100348.20
2019-04-07T17:19:52.185Z,100354.82
2019-04-07T17:22:21.733Z,100346.53
2019-04-07T17:24:58.325Z,100343.95
2019-04-07T17:27:27.877Z,100344.92
2019-04-07T17:30:00.535Z,100351.41
2019-04-07T17:32:33.074Z,100352.44
2019-04-07T17:35:02.877Z,100358.42
2019-04-07T17:37:32.352Z,100359.06
2019-04-07T17:40:11.286Z,100363.11
2019-04-07T17:42:39.843Z,100365.69
2019-04-07T17:45:27.558Z,100371.28
2019-04-07T17:48:06.886Z,100372.19
2019-04-07T17:50:44.358Z,100375.52
2019-04-07T17:53:17.439Z,100379.23
2019-04-07T17:55:57.183Z,100385.95
2019-04-07T17:58:38.134Z,100380.59
2019-04-07T18:01:08.993Z,100384.21
2019-04-07T18:03:49.671Z,100388.73
2019-04-07T18:06:33.477Z,100395.06
2019-04-07T18:09:12.292Z,100396.81
2019-04-07T18:11:44.798Z,100397.60
2019-04-07T18:14:18.096Z,100399.67
2019-04-07T18:17:00.823Z,100397.64
2019-04-07T18:19:36.128Z,100403.95
2019-04-07T18:22:24.764Z,100406.05
2019-04-07T18:25:01.864Z,100406.84
2019-04-07T18:27:34.181Z,100410.08
2019-04-07T18:30:08.303Z,100409.85
2019-04-07T18:32:46.785Z,100415.56
2019-04-07T18:35:34.775Z,100417.20
2019-04-07T18:38:19.352Z,100415.47
2019-04-07T18:41:01.030Z,100419.56
2019-04-07T18:43:49.122Z,100426.29
2019-04-07T18:46:16.823Z,100427.06
2019-04-07T18:48:56.400Z,100433.91
2019-04-07T18:51:47.063Z,100437.87
2019-04-07T18:54:33.570Z,100443.13
2019-04-07T18:57:11.886Z,100439.80
2019-04-07T18:59:59.420Z,100445.93
2019-04-07T19:02:33.273Z,100453.11
2019-04-07T19:05:05.101Z,100450.20
2019-04-07T19:07:37.906Z,100451.41
2019-04-07T19:10:17.677Z,100453.31
2019-04-07T19:13:10.993Z,100456.45
2019-04-07T19:15:42.139Z,100458.14
2019-04-07T19:18:31.281Z,100455.67
2019-04-07T19:21:18.351Z,100463.36
2019-04-07T19:24:08.017Z,100463.19
2019-04-07T19:26:49.809Z,100465.44
2019-04-07T19:29:33.722Z,100466.93
2019-04-07T19:32:17.945Z,100474.05
2019-04-07T19:34:57.320Z,100472.76
2019-04-07T19:37:40.758Z,100477.61
2019-04-07T19:40:19.150Z,100472.20
2019-04-07T19:42:56.358Z,100471.77
2019-04-07T19:45:43.774Z,100476.16
2019-04-07T19:48:31.152Z,100472.62
2019-04-07T19:51:05.086Z,100470.27
2019-04-07T19:53:36.657Z,100473.20
2019-04-07T19:56:16.777Z,100474.27
2019-04-07T19:58:51.622Z,100473.20
2019-04-07T20:01:23.382Z,100475.61
2019-04-07T20:04:13.001Z,100470.58
2019-04-07T20:06:44.211Z,100472.53
2019-04-07T20:09:32.122Z,100475.86
2019-04-07T20:12:18.460Z,100481.59
2019-04-07T20:15:01.385Z,100481.59
2019-04-07T20:17:31.073Z,100489.77
2019-04-07T20:20:12.294Z,100483.13
2019-04-07T20:23:00.333Z,100485.09
2019-04-07T20:25:37.599Z,100492.20
2019-04-07T20:28:08.967Z,100496.70
2019-04-07T20:30:51.150Z,100496.48
2019-04-07T20:33:21.671Z,100496.80
2019-04-07T20:36:02.334Z,100491.17
2019-04-07T20:38:33.737Z,100496.27
2019-04-07T20:41:05.378Z,100497.28
2019-04-07T20:43:48.648Z,100501.83
2019-04-07T20:46:23.970Z,100501.15
2019-04-07T20:49:13.636Z,100500.02
2019-04-07T20:52:03.036Z,100500.03
2019-04-07T20:54:35.408Z,100494.45
2019-04-07T20:57:07.210Z,100498.33
2019-04-07T20:59:50.155Z,100496.81
2019-04-07T21:02:30.290Z,100491.67
2019-04-07T21:05:05.230Z,100497.93
2019-04-07T21:07:39.694Z,100499.85
2019-04-07T21:10:13.556Z,100502.97
2019-04-07T21:12:50.776Z,100496.94
2019-04-07T21:15:32.367Z,100501.91
2019-04-07T21:18:04.165Z,100503.08
2019-04-07T21:20:36.728Z,100503.38
2019-04-07T21:23:08.120Z,100500.38
2019-04-07T21:25:41.687Z,100506.97
2019-04-07T21:28:12.757Z,100504.05
2019-04-07T21:30:56.230Z,100500.09
2019-04-07T21:33:30.019Z,100503.97
2019-04-07T21:36:10.496Z,100507.72
2019-04-07T21:38:45.349Z,100502.30
2019-04-07T21:41:16.858Z,100501.06
2019-04-07T21:44:04.641Z,100503.03
2019-04-07T21:46:44.659Z,100503.86
2019-04-07T21:49:22.031Z,100507.16
2019-04-07T21:51:55.721Z,100508.69
2019-04-07T21:54:43.890Z,100509.55
2019-04-07T21:57:15.236Z,100510.41
2019-04-07T21:59:52.290Z,100506.99
2019-04-07T22:02:32.170Z,100507.38
2019-04-07T22:05:15.675Z,100508.19
2019-04-07T22:07:46.834Z,100509.88
2019-04-07T22:10:19.442Z,100506.45
2019-04-07T22:12:48.705Z,100516.83
2019-04-07T22:15:18.227Z,100512.97
2019-04-07T22:17:47.901Z,100517.42
2019-04-07T22:20:20.106Z,100519.21
2019-04-07T22:22:51.848Z,100523.12
2019-04-07T22:25:32.736Z,100523.02
2019-04-07T22:28:02.230Z,100515.72
2019-04-07T22:30:33.975Z,100521.53
2019-04-07T22:33:04.182Z,100519.90
2019-04-07T22:35:34.492Z,100517.83
2019-04-07T22:38:05.222Z,100520.98
2019-04-07T22:40:37.963Z,100519.77
2019-04-07T22:43:05.874Z,100523.35
2019-04-07T22:45:35.467Z,100523.94
2019-04-07T22:48:08.121Z,100520.02
2019-04-07T22:50:38.230Z,100517.81
2019-04-07T22:53:09.383Z,100518.77
2019-04-07T22:55:39.976Z,100523.75
2019-04-07T22:58:09.554Z,100520.86
2019-04-07T23:00:40.351Z,100520.77
2019-04-07T23:03:12.000Z,100521.09
2019-04-07T23:05:41.641Z,100519.45
2019-04-07T23:08:11.212Z,100522.16
2019-04-07T23:10:40.844Z,100517.91
2019-04-07T23:13:11.027Z,100518.45
2019-04-07T23:15:45.539Z,100515.84
2019-04-07T23:18:12.028Z,100517.72
2019-04-07T23:20:41.777Z,100515.27
2019-04-07T23:23:11.338Z,100512.84
2019-04-07T23:25:40.766Z,100515.12
2019-04-07T23:28:10.367Z,100519.11
2019-04-07T23:30:40.850Z,100523.06
2019-04-07T23:33:10.476Z,100525.25
2019-04-07T23:35:39.939Z,100523.08
2019-04-07T23:38:09.390Z,100523.26
2019-04-07T23:40:39.808Z,100520.45
2019-04-07T23:43:09.355Z,100519.77
2019-04-07T23:45:38.774Z,100523.41
2019-04-07T23:48:08.407Z,100530.01
2019-04-07T23:50:37.791Z,100527.88
2019-04-07T23:53:43.719Z,100530.23
2019-04-07T23:56:13.134Z,100539.08
2019-04-07T23:58:43.438Z,100540.12
